sensor_id;sensor_type;location;lat;lon;timestamp;P1;durP1;ratioP1;P2;durP2;ratioP2
53513;SDS011;39768;54.148;12.174;2023-03-20T00:08:11;7.70;;;5.88;;
53513;SDS011;39768;54.148;12.174;2023-03-20T00:12:50;7.30;;;3.90;;
53513;SDS011;39768;54.148;12.174;2023-03-20T00:16:52;9.48;;;6.00;;
53513;SDS011;39768;54.148;12.174;2023-03-20T00:47:31;9.20;;;4.10;;
53513;SDS011;39768;54.148;12.174;2023-03-20T00:51:38;10.27;;;4.72;;
53513;SDS011;39768;54.148;12.174;2023-03-20T00:55:40;10.38;;;4.45;;
53513;SDS011;39768;54.148;12.174;2023-03-20T00:59:55;12.55;;;5.28;;
53513;SDS011;39768;54.148;12.174;2023-03-20T01:04:20;12.50;;;5.18;;
53513;SDS011;39768;54.148;12.174;2023-03-20T01:08:41;10.65;;;5.30;;
53513;SDS011;39768;54.148;12.174;2023-03-20T01:13:03;14.63;;;6.22;;
53513;SDS011;39768;54.148;12.174;2023-03-20T01:17:25;14.18;;;5.72;;
53513;SDS011;39768;54.148;12.174;2023-03-20T01:22:10;12.20;;;4.20;;
53513;SDS011;39768;54.148;12.174;2023-03-20T01:28:13;10.60;;;5.13;;
53513;SDS011;39768;54.148;12.174;2023-03-20T01:32:19;20.73;;;6.15;;
53513;SDS011;39768;54.148;12.174;2023-03-20T01:36:25;13.30;;;5.10;;
53513;SDS011;39768;54.148;12.174;2023-03-20T01:40:39;18.33;;;5.90;;
53513;SDS011;39768;54.148;12.174;2023-03-20T01:45:34;9.10;;;5.40;;
53513;SDS011;39768;54.148;12.174;2023-03-20T01:54:27;21.15;;;5.75;;
53513;SDS011;39768;54.148;12.174;2023-03-20T01:58:39;16.02;;;6.82;;
53513;SDS011;39768;54.148;12.174;2023-03-20T02:08:21;9.13;;;5.07;;
53513;SDS011;39768;54.148;12.174;2023-03-20T02:12:30;6.05;;;3.95;;
53513;SDS011;39768;54.148;12.174;2023-03-20T02:16:32;7.28;;;3.72;;
53513;SDS011;39768;54.148;12.174;2023-03-20T02:44:52;4.97;;;3.40;;
53513;SDS011;39768;54.148;12.174;2023-03-20T02:48:52;11.25;;;3.60;;
53513;SDS011;39768;54.148;12.174;2023-03-20T03:06:40;8.25;;;3.15;;
53513;SDS011;39768;54.148;12.174;2023-03-20T03:21:16;6.15;;;2.58;;
53513;SDS011;39768;54.148;12.174;2023-03-20T03:25:20;3.17;;;2.38;;
53513;SDS011;39768;54.148;12.174;2023-03-20T03:29:24;7.72;;;3.05;;
53513;SDS011;39768;54.148;12.174;2023-03-20T03:33:30;6.32;;;3.28;;
53513;SDS011;39768;54.148;12.174;2023-03-20T03:37:44;4.55;;;2.72;;
53513;SDS011;39768;54.148;12.174;2023-03-20T03:42:15;5.18;;;3.35;;
53513;SDS011;39768;54.148;12.174;2023-03-20T03:48:35;6.60;;;2.70;;
53513;SDS011;39768;54.148;12.174;2023-03-20T04:09:34;3.42;;;2.33;;
53513;SDS011;39768;54.148;12.174;2023-03-20T04:13:36;10.27;;;3.05;;
53513;SDS011;39768;54.148;12.174;2023-03-20T04:17:38;5.05;;;2.90;;
53513;SDS011;39768;54.148;12.174;2023-03-20T04:21:41;5.07;;;2.63;;
53513;SDS011;39768;54.148;12.174;2023-03-20T04:25:42;3.67;;;2.42;;
53513;SDS011;39768;54.148;12.174;2023-03-20T04:29:44;3.45;;;2.15;;
53513;SDS011;39768;54.148;12.174;2023-03-20T04:34:00;5.75;;;2.42;;
53513;SDS011;39768;54.148;12.174;2023-03-20T04:38:29;1.90;;;1.40;;
53513;SDS011;39768;54.148;12.174;2023-03-20T04:42:31;20.10;;;1.52;;
53513;SDS011;39768;54.148;12.174;2023-03-20T04:46:36;5.10;;;2.55;;
53513;SDS011;39768;54.148;12.174;2023-03-20T04:50:46;5.03;;;1.92;;
53513;SDS011;39768;54.148;12.174;2023-03-20T04:54:50;7.57;;;3.50;;
53513;SDS011;39768;54.148;12.174;2023-03-20T04:58:52;2.60;;;1.92;;
53513;SDS011;39768;54.148;12.174;2023-03-20T05:02:55;4.97;;;3.08;;
53513;SDS011;39768;54.148;12.174;2023-03-20T05:06:57;6.40;;;2.40;;
53513;SDS011;39768;54.148;12.174;2023-03-20T05:11:27;9.88;;;3.03;;
53513;SDS011;39768;54.148;12.174;2023-03-20T05:16:11;6.07;;;2.25;;
53513;SDS011;39768;54.148;12.174;2023-03-20T05:20:55;6.55;;;2.28;;
53513;SDS011;39768;54.148;12.174;2023-03-20T05:25:03;4.40;;;1.83;;
53513;SDS011;39768;54.148;12.174;2023-03-20T05:29:22;8.80;;;2.67;;
53513;SDS011;39768;54.148;12.174;2023-03-20T05:33:43;7.18;;;2.60;;
53513;SDS011;39768;54.148;12.174;2023-03-20T05:38:14;6.00;;;2.20;;
53513;SDS011;39768;54.148;12.174;2023-03-20T05:42:25;5.35;;;2.55;;
53513;SDS011;39768;54.148;12.174;2023-03-20T05:46:50;5.35;;;2.53;;
53513;SDS011;39768;54.148;12.174;2023-03-20T05:55:26;1.85;;;1.35;;
53513;SDS011;39768;54.148;12.174;2023-03-20T05:59:47;5.80;;;2.83;;
53513;SDS011;39768;54.148;12.174;2023-03-20T06:03:59;2.83;;;1.52;;
53513;SDS011;39768;54.148;12.174;2023-03-20T06:08:24;2.97;;;2.30;;
53513;SDS011;39768;54.148;12.174;2023-03-20T06:12:27;4.78;;;1.88;;
53513;SDS011;39768;54.148;12.174;2023-03-20T06:16:29;9.13;;;2.90;;
53513;SDS011;39768;54.148;12.174;2023-03-20T06:20:32;4.20;;;1.70;;
53513;SDS011;39768;54.148;12.174;2023-03-20T06:24:36;5.47;;;2.97;;
53513;SDS011;39768;54.148;12.174;2023-03-20T06:28:39;4.43;;;1.80;;
53513;SDS011;39768;54.148;12.174;2023-03-20T06:32:43;4.80;;;1.77;;
53513;SDS011;39768;54.148;12.174;2023-03-20T06:36:46;3.13;;;2.35;;
53513;SDS011;39768;54.148;12.174;2023-03-20T06:40:53;2.60;;;1.90;;
53513;SDS011;39768;54.148;12.174;2023-03-20T06:44:56;2.00;;;1.77;;
53513;SDS011;39768;54.148;12.174;2023-03-20T06:49:12;4.47;;;2.53;;
53513;SDS011;39768;54.148;12.174;2023-03-20T06:53:15;3.17;;;1.55;;
53513;SDS011;39768;54.148;12.174;2023-03-20T06:57:35;1.88;;;1.15;;
53513;SDS011;39768;54.148;12.174;2023-03-20T07:01:37;1.77;;;1.38;;
53513;SDS011;39768;54.148;12.174;2023-03-20T07:05:40;2.60;;;1.33;;
53513;SDS011;39768;54.148;12.174;2023-03-20T07:09:44;3.65;;;1.88;;
53513;SDS011;39768;54.148;12.174;2023-03-20T07:13:47;4.80;;;1.88;;
53513;SDS011;39768;54.148;12.174;2023-03-20T07:18:15;2.03;;;1.73;;
53513;SDS011;39768;54.148;12.174;2023-03-20T07:22:18;2.70;;;1.65;;
53513;SDS011;39768;54.148;12.174;2023-03-20T07:26:23;4.25;;;2.72;;
53513;SDS011;39768;54.148;12.174;2023-03-20T07:30:26;3.28;;;1.77;;
53513;SDS011;39768;54.148;12.174;2023-03-20T07:34:28;2.78;;;1.23;;
53513;SDS011;39768;54.148;12.174;2023-03-20T07:38:31;2.30;;;1.45;;
53513;SDS011;39768;54.148;12.174;2023-03-20T07:42:43;1.75;;;1.65;;
53513;SDS011;39768;54.148;12.174;2023-03-20T07:46:47;3.10;;;0.93;;
53513;SDS011;39768;54.148;12.174;2023-03-20T07:50:49;1.48;;;1.33;;
53513;SDS011;39768;54.148;12.174;2023-03-20T07:54:51;2.08;;;1.40;;
53513;SDS011;39768;54.148;12.174;2023-03-20T07:58:54;2.90;;;1.80;;
53513;SDS011;39768;54.148;12.174;2023-03-20T08:02:55;1.70;;;1.00;;
53513;SDS011;39768;54.148;12.174;2023-03-20T08:06:57;2.03;;;1.42;;
53513;SDS011;39768;54.148;12.174;2023-03-20T08:10:59;2.75;;;1.00;;
53513;SDS011;39768;54.148;12.174;2023-03-20T08:15:00;2.28;;;1.58;;
53513;SDS011;39768;54.148;12.174;2023-03-20T08:19:02;1.90;;;1.00;;
53513;SDS011;39768;54.148;12.174;2023-03-20T08:23:05;1.63;;;1.25;;
53513;SDS011;39768;54.148;12.174;2023-03-20T08:27:08;1.15;;;0.82;;
53513;SDS011;39768;54.148;12.174;2023-03-20T08:31:09;2.25;;;1.15;;
53513;SDS011;39768;54.148;12.174;2023-03-20T08:35:11;1.58;;;1.25;;
53513;SDS011;39768;54.148;12.174;2023-03-20T08:39:32;2.60;;;1.00;;
53513;SDS011;39768;54.148;12.174;2023-03-20T08:43:36;2.10;;;0.93;;
53513;SDS011;39768;54.148;12.174;2023-03-20T08:48:20;1.15;;;0.90;;
53513;SDS011;39768;54.148;12.174;2023-03-20T08:52:41;2.15;;;1.08;;
53513;SDS011;39768;54.148;12.174;2023-03-20T08:56:44;1.90;;;0.70;;
53513;SDS011;39768;54.148;12.174;2023-03-20T09:00:52;1.50;;;1.40;;
53513;SDS011;39768;54.148;12.174;2023-03-20T09:10:20;0.88;;;0.88;;
53513;SDS011;39768;54.148;12.174;2023-03-20T09:14:22;1.17;;;0.85;;
53513;SDS011;39768;54.148;12.174;2023-03-20T09:18:24;1.33;;;0.88;;
53513;SDS011;39768;54.148;12.174;2023-03-20T09:22:26;0.82;;;0.82;;
53513;SDS011;39768;54.148;12.174;2023-03-20T09:26:28;0.73;;;0.73;;
53513;SDS011;39768;54.148;12.174;2023-03-20T09:30:29;0.80;;;0.68;;
53513;SDS011;39768;54.148;12.174;2023-03-20T09:34:31;1.30;;;0.88;;
53513;SDS011;39768;54.148;12.174;2023-03-20T09:38:32;1.98;;;1.23;;
53513;SDS011;39768;54.148;12.174;2023-03-20T09:47:21;0.88;;;0.75;;
53513;SDS011;39768;54.148;12.174;2023-03-20T09:51:50;1.27;;;0.97;;
53513;SDS011;39768;54.148;12.174;2023-03-20T09:55:55;0.70;;;0.70;;
53513;SDS011;39768;54.148;12.174;2023-03-20T10:00:03;2.28;;;0.60;;
53513;SDS011;39768;54.148;12.174;2023-03-20T10:04:12;3.38;;;1.08;;
53513;SDS011;39768;54.148;12.174;2023-03-20T10:08:14;1.63;;;0.93;;
53513;SDS011;39768;54.148;12.174;2023-03-20T10:21:09;1.20;;;1.00;;
53513;SDS011;39768;54.148;12.174;2023-03-20T10:26:14;1.35;;;1.02;;
53513;SDS011;39768;54.148;12.174;2023-03-20T10:35:27;1.88;;;1.20;;
53513;SDS011;39768;54.148;12.174;2023-03-20T10:39:45;5.88;;;0.90;;
53513;SDS011;39768;54.148;12.174;2023-03-20T10:44:04;3.08;;;1.15;;
53513;SDS011;39768;54.148;12.174;2023-03-20T10:53:27;1.05;;;0.80;;
53513;SDS011;39768;54.148;12.174;2023-03-20T10:57:36;1.00;;;0.90;;
53513;SDS011;39768;54.148;12.174;2023-03-20T11:01:42;2.03;;;1.20;;
53513;SDS011;39768;54.148;12.174;2023-03-20T11:05:43;2.92;;;1.00;;
53513;SDS011;39768;54.148;12.174;2023-03-20T11:10:10;2.53;;;1.20;;
53513;SDS011;39768;54.148;12.174;2023-03-20T11:14:21;2.03;;;1.40;;
53513;SDS011;39768;54.148;12.174;2023-03-20T11:18:25;1.80;;;1.13;;
53513;SDS011;39768;54.148;12.174;2023-03-20T11:22:26;2.88;;;1.65;;
53513;SDS011;39768;54.148;12.174;2023-03-20T11:26:37;2.28;;;1.50;;
53513;SDS011;39768;54.148;12.174;2023-03-20T11:30:40;2.53;;;1.50;;
53513;SDS011;39768;54.148;12.174;2023-03-20T11:39:22;0.88;;;0.88;;
53513;SDS011;39768;54.148;12.174;2023-03-20T11:43:26;4.25;;;1.75;;
53513;SDS011;39768;54.148;12.174;2023-03-20T11:47:30;1.60;;;0.93;;
53513;SDS011;39768;54.148;12.174;2023-03-20T11:51:34;5.28;;;0.95;;
53513;SDS011;39768;54.148;12.174;2023-03-20T11:55:38;2.53;;;1.73;;
53513;SDS011;39768;54.148;12.174;2023-03-20T11:59:39;2.90;;;1.55;;
53513;SDS011;39768;54.148;12.174;2023-03-20T12:03:42;2.00;;;1.30;;
53513;SDS011;39768;54.148;12.174;2023-03-20T12:07:50;2.03;;;1.20;;
53513;SDS011;39768;54.148;12.174;2023-03-20T12:12:06;1.50;;;1.38;;
53513;SDS011;39768;54.148;12.174;2023-03-20T12:16:18;2.78;;;0.93;;
53513;SDS011;39768;54.148;12.174;2023-03-20T12:20:27;2.53;;;1.73;;
53513;SDS011;39768;54.148;12.174;2023-03-20T12:24:54;2.70;;;1.92;;
53513;SDS011;39768;54.148;12.174;2023-03-20T12:29:05;4.40;;;1.90;;
53513;SDS011;39768;54.148;12.174;2023-03-20T12:33:20;1.20;;;1.08;;
53513;SDS011;39768;54.148;12.174;2023-03-20T12:37:25;1.73;;;1.20;;
53513;SDS011;39768;54.148;12.174;2023-03-20T12:41:28;2.08;;;1.92;;
53513;SDS011;39768;54.148;12.174;2023-03-20T12:45:52;1.55;;;1.23;;
53513;SDS011;39768;54.148;12.174;2023-03-20T12:50:18;2.08;;;1.42;;
53513;SDS011;39768;54.148;12.174;2023-03-20T12:58:47;2.22;;;1.40;;
53513;SDS011;39768;54.148;12.174;2023-03-20T13:07:30;2.15;;;1.70;;
53513;SDS011;39768;54.148;12.174;2023-03-20T13:11:50;2.43;;;1.80;;
53513;SDS011;39768;54.148;12.174;2023-03-20T13:16:14;2.97;;;2.03;;
53513;SDS011;39768;54.148;12.174;2023-03-20T13:20:29;4.05;;;2.30;;
53513;SDS011;39768;54.148;12.174;2023-03-20T13:24:41;5.15;;;1.70;;
53513;SDS011;39768;54.148;12.174;2023-03-20T13:28:52;3.42;;;2.00;;
53513;SDS011;39768;54.148;12.174;2023-03-20T13:33:14;3.80;;;1.85;;
53513;SDS011;39768;54.148;12.174;2023-03-20T13:37:33;2.92;;;2.15;;
53513;SDS011;39768;54.148;12.174;2023-03-20T13:41:39;2.30;;;1.95;;
53513;SDS011;39768;54.148;12.174;2023-03-20T13:45:40;3.15;;;1.58;;
53513;SDS011;39768;54.148;12.174;2023-03-20T13:54:11;2.00;;;1.20;;
53513;SDS011;39768;54.148;12.174;2023-03-20T13:58:26;1.02;;;1.02;;
53513;SDS011;39768;54.148;12.174;2023-03-20T14:07:32;2.40;;;1.45;;
53513;SDS011;39768;54.148;12.174;2023-03-20T14:11:36;1.45;;;1.35;;
53513;SDS011;39768;54.148;12.174;2023-03-20T14:15:39;2.45;;;1.75;;
53513;SDS011;39768;54.148;12.174;2023-03-20T14:19:48;0.93;;;0.85;;
53513;SDS011;39768;54.148;12.174;2023-03-20T14:24:04;3.10;;;2.00;;
53513;SDS011;39768;54.148;12.174;2023-03-20T14:36:27;1.50;;;1.40;;
53513;SDS011;39768;54.148;12.174;2023-03-20T14:41:27;1.92;;;1.75;;
53513;SDS011;39768;54.148;12.174;2023-03-20T14:45:28;1.40;;;1.30;;
53513;SDS011;39768;54.148;12.174;2023-03-20T14:53:42;1.45;;;1.35;;
53513;SDS011;39768;54.148;12.174;2023-03-20T14:57:44;3.10;;;2.35;;
53513;SDS011;39768;54.148;12.174;2023-03-20T15:01:57;2.03;;;1.83;;
53513;SDS011;39768;54.148;12.174;2023-03-20T15:06:01;2.30;;;1.50;;
53513;SDS011;39768;54.148;12.174;2023-03-20T15:10:09;2.70;;;1.60;;
53513;SDS011;39768;54.148;12.174;2023-03-20T15:14:17;3.78;;;2.20;;
53513;SDS011;39768;54.148;12.174;2023-03-20T15:18:26;3.95;;;2.55;;
53513;SDS011;39768;54.148;12.174;2023-03-20T15:22:27;4.18;;;1.83;;
53513;SDS011;39768;54.148;12.174;2023-03-20T15:26:30;2.55;;;1.90;;
53513;SDS011;39768;54.148;12.174;2023-03-20T15:30:35;8.05;;;2.92;;
53513;SDS011;39768;54.148;12.174;2023-03-20T15:34:39;6.18;;;1.85;;
53513;SDS011;39768;54.148;12.174;2023-03-20T15:38:42;2.92;;;2.35;;
53513;SDS011;39768;54.148;12.174;2023-03-20T15:42:51;3.88;;;1.83;;
53513;SDS011;39768;54.148;12.174;2023-03-20T15:46:55;1.70;;;1.58;;
53513;SDS011;39768;54.148;12.174;2023-03-20T15:51:01;3.40;;;1.95;;
53513;SDS011;39768;54.148;12.174;2023-03-20T15:55:05;2.33;;;1.65;;
53513;SDS011;39768;54.148;12.174;2023-03-20T15:59:12;2.88;;;1.70;;
53513;SDS011;39768;54.148;12.174;2023-03-20T16:03:17;6.00;;;1.88;;
53513;SDS011;39768;54.148;12.174;2023-03-20T16:07:22;1.83;;;1.30;;
53513;SDS011;39768;54.148;12.174;2023-03-20T16:11:35;4.60;;;1.83;;
53513;SDS011;39768;54.148;12.174;2023-03-20T16:15:41;2.30;;;2.10;;
53513;SDS011;39768;54.148;12.174;2023-03-20T16:19:43;1.70;;;1.60;;
53513;SDS011;39768;54.148;12.174;2023-03-20T16:23:46;2.67;;;1.70;;
53513;SDS011;39768;54.148;12.174;2023-03-20T16:27:52;2.33;;;2.13;;
53513;SDS011;39768;54.148;12.174;2023-03-20T16:31:56;1.73;;;1.45;;
53513;SDS011;39768;54.148;12.174;2023-03-20T16:36:02;2.75;;;2.35;;
53513;SDS011;39768;54.148;12.174;2023-03-20T16:44:31;1.50;;;1.40;;
53513;SDS011;39768;54.148;12.174;2023-03-20T16:48:36;3.83;;;1.95;;
53513;SDS011;39768;54.148;12.174;2023-03-20T16:52:39;4.13;;;2.50;;
53513;SDS011;39768;54.148;12.174;2023-03-20T16:56:45;6.88;;;2.70;;
53513;SDS011;39768;54.148;12.174;2023-03-20T17:01:03;2.85;;;2.40;;
53513;SDS011;39768;54.148;12.174;2023-03-20T17:05:10;4.55;;;2.63;;
53513;SDS011;39768;54.148;12.174;2023-03-20T17:09:23;5.32;;;3.40;;
53513;SDS011;39768;54.148;12.174;2023-03-20T17:13:26;13.00;;;3.13;;
53513;SDS011;39768;54.148;12.174;2023-03-20T17:17:28;2.50;;;2.13;;
53513;SDS011;39768;54.148;12.174;2023-03-20T17:21:29;5.65;;;2.20;;
53513;SDS011;39768;54.148;12.174;2023-03-20T17:25:31;6.57;;;3.60;;
53513;SDS011;39768;54.148;12.174;2023-03-20T17:29:33;4.93;;;1.85;;
53513;SDS011;39768;54.148;12.174;2023-03-20T17:33:34;2.13;;;1.92;;
53513;SDS011;39768;54.148;12.174;2023-03-20T17:37:36;6.70;;;2.80;;
53513;SDS011;39768;54.148;12.174;2023-03-20T17:41:38;4.38;;;2.40;;
53513;SDS011;39768;54.148;12.174;2023-03-20T17:45:41;2.47;;;2.25;;
53513;SDS011;39768;54.148;12.174;2023-03-20T17:49:43;4.38;;;2.83;;
53513;SDS011;39768;54.148;12.174;2023-03-20T17:53:45;5.63;;;3.08;;
53513;SDS011;39768;54.148;12.174;2023-03-20T17:57:47;5.28;;;2.50;;
53513;SDS011;39768;54.148;12.174;2023-03-20T18:01:49;2.58;;;1.95;;
53513;SDS011;39768;54.148;12.174;2023-03-20T18:05:51;3.67;;;2.03;;
53513;SDS011;39768;54.148;12.174;2023-03-20T18:09:52;6.70;;;2.42;;
53513;SDS011;39768;54.148;12.174;2023-03-20T18:13:55;5.22;;;2.10;;
53513;SDS011;39768;54.148;12.174;2023-03-20T18:17:56;3.83;;;2.30;;
53513;SDS011;39768;54.148;12.174;2023-03-20T18:22:03;2.72;;;2.35;;
53513;SDS011;39768;54.148;12.174;2023-03-20T18:26:18;14.68;;;3.00;;
53513;SDS011;39768;54.148;12.174;2023-03-20T18:30:23;3.35;;;2.03;;
53513;SDS011;39768;54.148;12.174;2023-03-20T18:34:27;4.05;;;2.00;;
53513;SDS011;39768;54.148;12.174;2023-03-20T18:38:29;5.55;;;2.88;;
53513;SDS011;39768;54.148;12.174;2023-03-20T18:42:30;7.35;;;3.03;;
53513;SDS011;39768;54.148;12.174;2023-03-20T18:46:32;3.10;;;2.47;;
53513;SDS011;39768;54.148;12.174;2023-03-20T18:50:34;3.58;;;2.45;;
53513;SDS011;39768;54.148;12.174;2023-03-20T18:54:38;5.38;;;2.60;;
53513;SDS011;39768;54.148;12.174;2023-03-20T18:58:40;6.28;;;3.15;;
53513;SDS011;39768;54.148;12.174;2023-03-20T19:02:42;5.65;;;2.28;;
53513;SDS011;39768;54.148;12.174;2023-03-20T19:06:44;7.22;;;2.53;;
53513;SDS011;39768;54.148;12.174;2023-03-20T19:10:46;14.30;;;2.60;;
53513;SDS011;39768;54.148;12.174;2023-03-20T19:14:48;4.90;;;2.58;;
53513;SDS011;39768;54.148;12.174;2023-03-20T19:18:51;2.58;;;1.83;;
53513;SDS011;39768;54.148;12.174;2023-03-20T19:22:53;4.00;;;1.67;;
53513;SDS011;39768;54.148;12.174;2023-03-20T19:26:55;6.22;;;1.98;;
53513;SDS011;39768;54.148;12.174;2023-03-20T19:30:57;4.45;;;2.42;;
53513;SDS011;39768;54.148;12.174;2023-03-20T19:34:59;9.07;;;2.97;;
53513;SDS011;39768;54.148;12.174;2023-03-20T19:39:20;2.75;;;1.92;;
53513;SDS011;39768;54.148;12.174;2023-03-20T19:43:22;4.53;;;2.92;;
53513;SDS011;39768;54.148;12.174;2023-03-20T19:47:23;5.55;;;3.25;;
53513;SDS011;39768;54.148;12.174;2023-03-20T19:51:25;3.97;;;2.08;;
53513;SDS011;39768;54.148;12.174;2023-03-20T19:55:27;5.05;;;2.25;;
53513;SDS011;39768;54.148;12.174;2023-03-20T19:59:29;5.80;;;2.28;;
53513;SDS011;39768;54.148;12.174;2023-03-20T20:03:33;3.20;;;1.90;;
53513;SDS011;39768;54.148;12.174;2023-03-20T20:07:34;9.20;;;3.08;;
53513;SDS011;39768;54.148;12.174;2023-03-20T20:11:56;2.22;;;2.10;;
53513;SDS011;39768;54.148;12.174;2023-03-20T20:15:58;7.72;;;2.30;;
53513;SDS011;39768;54.148;12.174;2023-03-20T20:20:01;4.93;;;2.80;;
53513;SDS011;39768;54.148;12.174;2023-03-20T20:24:02;3.92;;;2.15;;
53513;SDS011;39768;54.148;12.174;2023-03-20T20:28:04;4.38;;;2.28;;
53513;SDS011;39768;54.148;12.174;2023-03-20T20:32:07;4.68;;;2.75;;
53513;SDS011;39768;54.148;12.174;2023-03-20T20:36:09;8.77;;;2.58;;
53513;SDS011;39768;54.148;12.174;2023-03-20T20:40:32;2.92;;;2.20;;
53513;SDS011;39768;54.148;12.174;2023-03-20T20:44:33;7.05;;;2.83;;
53513;SDS011;39768;54.148;12.174;2023-03-20T20:48:35;3.58;;;2.38;;
53513;SDS011;39768;54.148;12.174;2023-03-20T20:52:38;7.50;;;2.83;;
53513;SDS011;39768;54.148;12.174;2023-03-20T20:56:42;7.85;;;2.78;;
53513;SDS011;39768;54.148;12.174;2023-03-20T21:00:43;7.55;;;2.83;;
53513;SDS011;39768;54.148;12.174;2023-03-20T21:04:54;4.30;;;3.15;;
53513;SDS011;39768;54.148;12.174;2023-03-20T21:08:56;6.47;;;3.17;;
53513;SDS011;39768;54.148;12.174;2023-03-20T21:12:58;5.95;;;2.83;;
53513;SDS011;39768;54.148;12.174;2023-03-20T21:17:00;3.10;;;2.60;;
53513;SDS011;39768;54.148;12.174;2023-03-20T21:21:06;7.55;;;2.83;;
53513;SDS011;39768;54.148;12.174;2023-03-20T21:25:09;5.45;;;3.47;;
53513;SDS011;39768;54.148;12.174;2023-03-20T21:29:16;4.65;;;2.53;;
53513;SDS011;39768;54.148;12.174;2023-03-20T21:33:18;7.05;;;2.95;;
53513;SDS011;39768;54.148;12.174;2023-03-20T21:37:21;3.78;;;2.35;;
53513;SDS011;39768;54.148;12.174;2023-03-20T21:41:43;11.88;;;3.20;;
53513;SDS011;39768;54.148;12.174;2023-03-20T21:45:45;2.72;;;2.13;;
53513;SDS011;39768;54.148;12.174;2023-03-20T21:50:06;4.60;;;2.85;;
53513;SDS011;39768;54.148;12.174;2023-03-20T21:54:28;5.85;;;3.15;;
53513;SDS011;39768;54.148;12.174;2023-03-20T21:58:50;9.23;;;3.22;;
53513;SDS011;39768;54.148;12.174;2023-03-20T22:03:12;7.53;;;3.88;;
53513;SDS011;39768;54.148;12.174;2023-03-20T22:07:33;6.82;;;4.57;;
53513;SDS011;39768;54.148;12.174;2023-03-20T22:11:58;3.85;;;2.10;;
53513;SDS011;39768;54.148;12.174;2023-03-20T22:16:21;5.40;;;3.58;;
53513;SDS011;39768;54.148;12.174;2023-03-20T22:20:42;7.72;;;3.47;;
53513;SDS011;39768;54.148;12.174;2023-03-20T22:25:04;6.90;;;3.60;;
53513;SDS011;39768;54.148;12.174;2023-03-20T22:29:26;8.52;;;3.47;;
53513;SDS011;39768;54.148;12.174;2023-03-20T22:33:47;6.10;;;3.80;;
53513;SDS011;39768;54.148;12.174;2023-03-20T22:38:10;5.75;;;3.13;;
53513;SDS011;39768;54.148;12.174;2023-03-20T22:42:32;5.82;;;2.75;;
53513;SDS011;39768;54.148;12.174;2023-03-20T22:46:54;4.95;;;2.72;;
53513;SDS011;39768;54.148;12.174;2023-03-20T22:50:55;3.03;;;2.38;;
53513;SDS011;39768;54.148;12.174;2023-03-20T22:54:57;5.68;;;3.30;;
53513;SDS011;39768;54.148;12.174;2023-03-20T22:58:58;8.15;;;2.85;;
53513;SDS011;39768;54.148;12.174;2023-03-20T23:03:01;5.53;;;3.17;;
53513;SDS011;39768;54.148;12.174;2023-03-20T23:07:20;3.40;;;2.78;;
53513;SDS011;39768;54.148;12.174;2023-03-20T23:11:22;7.45;;;3.03;;
53513;SDS011;39768;54.148;12.174;2023-03-20T23:15:25;6.43;;;3.53;;
53513;SDS011;39768;54.148;12.174;2023-03-20T23:19:26;8.82;;;2.33;;
53513;SDS011;39768;54.148;12.174;2023-03-20T23:23:32;2.90;;;2.15;;
53513;SDS011;39768;54.148;12.174;2023-03-20T23:27:34;5.93;;;2.85;;
53513;SDS011;39768;54.148;12.174;2023-03-20T23:31:35;3.15;;;2.20;;
53513;SDS011;39768;54.148;12.174;2023-03-20T23:35:37;4.35;;;2.47;;
53513;SDS011;39768;54.148;12.174;2023-03-20T23:39:38;5.75;;;3.88;;
53513;SDS011;39768;54.148;12.174;2023-03-20T23:43:40;3.17;;;2.45;;
53513;SDS011;39768;54.148;12.174;2023-03-20T23:47:41;4.13;;;3.33;;
53513;SDS011;39768;54.148;12.174;2023-03-20T23:51:45;4.70;;;3.33;;
53513;SDS011;39768;54.148;12.174;2023-03-20T23:55:48;3.10;;;2.05;;
53513;SDS011;39768;54.148;12.174;2023-03-20T23:59:52;3.30;;;2.55;;
